createdAt,value
2019-01-28T00:02:23.169Z,2.00
2019-01-28T00:04:53.256Z,2.10
2019-01-28T00:07:25.364Z,2.00
2019-01-28T00:09:55.936Z,2.00
2019-01-28T00:12:25.831Z,2.10
2019-01-28T00:14:56.625Z,2.10
2019-01-28T00:17:26.986Z,2.10
2019-01-28T00:19:57.070Z,2.10
2019-01-28T00:22:27.351Z,2.10
2019-01-28T00:24:57.214Z,2.10
2019-01-28T00:27:27.119Z,2.20
2019-01-28T00:29:57.374Z,2.20
2019-01-28T00:32:28.038Z,2.20
2019-01-28T00:34:58.256Z,2.20
2019-01-28T00:37:28.757Z,2.20
2019-01-28T00:39:58.569Z,2.20
2019-01-28T00:42:28.652Z,2.20
2019-01-28T00:44:58.729Z,2.20
2019-01-28T00:47:28.637Z,2.20
2019-01-28T00:49:58.647Z,2.20
2019-01-28T00:52:28.915Z,2.20
2019-01-28T00:54:58.911Z,2.20
2019-01-28T00:57:28.866Z,2.20
2019-01-28T00:59:58.591Z,2.20
2019-01-28T01:02:28.526Z,2.20
2019-01-28T01:04:58.226Z,2.30
2019-01-28T01:07:28.626Z,2.30
2019-01-28T01:09:58.439Z,2.20
2019-01-28T01:12:28.188Z,2.10
2019-01-28T01:14:58.826Z,2.10
2019-01-28T01:17:29.450Z,2.00
2019-01-28T01:19:59.257Z,2.00
2019-01-28T01:22:29.695Z,2.00
2019-01-28T01:24:59.858Z,1.90
2019-01-28T01:27:29.789Z,2.00
2019-01-28T01:30:00.413Z,2.00
2019-01-28T01:32:30.471Z,1.90
2019-01-28T01:35:00.334Z,1.90
2019-01-28T01:37:30.196Z,1.90
2019-01-28T01:40:00.265Z,1.90
2019-01-28T01:42:30.389Z,1.90
2019-01-28T01:45:00.402Z,1.90
2019-01-28T01:47:30.344Z,1.90
2019-01-28T01:50:00.397Z,1.90
2019-01-28T01:52:30.268Z,1.80
2019-01-28T01:55:00.254Z,1.90
2019-01-28T01:57:30.196Z,1.80
2019-01-28T01:59:59.939Z,1.80
2019-01-28T02:02:33.404Z,1.80
2019-01-28T02:05:01.206Z,1.80
2019-01-28T02:07:31.880Z,1.90
2019-01-28T02:10:01.648Z,1.80
2019-01-28T02:12:31.618Z,1.80
2019-01-28T02:15:01.632Z,1.90
2019-01-28T02:17:31.516Z,1.90
2019-01-28T02:20:01.492Z,1.80
2019-01-28T02:22:32.361Z,1.80
2019-01-28T02:25:02.216Z,1.80
2019-01-28T02:27:32.812Z,1.80
2019-01-28T02:30:03.521Z,1.80
2019-01-28T02:32:34.508Z,1.80
2019-01-28T02:35:05.460Z,1.80
2019-01-28T02:37:36.185Z,1.80
2019-01-28T02:40:08.700Z,1.70
2019-01-28T02:42:38.791Z,1.70
2019-01-28T02:45:10.536Z,1.60
2019-01-28T02:47:40.756Z,1.50
2019-01-28T02:50:13.041Z,1.60
2019-01-28T02:52:42.982Z,1.50
2019-01-28T02:55:13.741Z,1.50
2019-01-28T02:57:43.279Z,1.50
2019-01-28T03:00:15.994Z,1.40
2019-01-28T03:02:46.243Z,1.40
2019-01-28T03:05:16.676Z,1.40
2019-01-28T03:07:46.789Z,1.30
2019-01-28T03:10:21.543Z,1.40
2019-01-28T03:12:51.515Z,1.50
2019-01-28T03:15:21.647Z,1.50
2019-01-28T03:17:51.594Z,1.50
2019-01-28T03:20:21.922Z,1.60
2019-01-28T03:22:51.839Z,1.70
2019-01-28T03:25:22.128Z,1.60
2019-01-28T03:27:51.911Z,1.70
2019-01-28T03:30:22.333Z,1.70
2019-01-28T03:32:52.046Z,1.80
2019-01-28T03:35:22.876Z,1.70
2019-01-28T03:37:53.839Z,1.60
2019-01-28T03:40:24.338Z,1.50
2019-01-28T03:42:54.849Z,1.40
2019-01-28T03:45:26.688Z,1.40
2019-01-28T03:47:57.123Z,1.40
2019-01-28T03:50:28.839Z,1.40
2019-01-28T03:53:02.039Z,1.50
2019-01-28T03:55:33.073Z,1.40
2019-01-28T03:58:03.218Z,1.50
2019-01-28T04:00:34.313Z,1.50
2019-01-28T04:03:04.378Z,1.50
2019-01-28T04:05:34.078Z,1.50
2019-01-28T04:08:04.351Z,1.60
2019-01-28T04:10:34.331Z,1.60
2019-01-28T04:13:04.420Z,1.60
2019-01-28T04:15:34.277Z,1.50
2019-01-28T04:18:04.717Z,1.60
2019-01-28T04:20:34.804Z,1.60
2019-01-28T04:23:04.823Z,1.70
2019-01-28T04:25:34.823Z,1.70
2019-01-28T04:28:04.575Z,1.70
2019-01-28T04:30:34.248Z,1.80
2019-01-28T04:33:04.003Z,1.80
2019-01-28T04:35:33.753Z,1.80
2019-01-28T04:38:03.509Z,1.80
2019-01-28T04:40:33.158Z,1.80
2019-01-28T04:43:03.102Z,1.70
2019-01-28T04:45:32.978Z,1.70
2019-01-28T04:48:05.751Z,1.70
2019-01-28T04:50:35.867Z,1.50
2019-01-28T04:53:05.728Z,1.60
2019-01-28T04:55:35.710Z,1.70
2019-01-28T04:58:07.594Z,1.60
2019-01-28T05:00:38.463Z,1.60
2019-01-28T05:03:08.718Z,1.70
2019-01-28T05:05:39.235Z,1.60
2019-01-28T05:08:11.748Z,1.60
2019-01-28T05:10:42.639Z,1.70
2019-01-28T05:13:14.006Z,1.60
2019-01-28T05:15:44.703Z,1.70
2019-01-28T05:18:15.702Z,1.70
2019-01-28T05:20:47.617Z,1.80
2019-01-28T05:23:19.518Z,1.80
2019-01-28T05:25:51.445Z,1.80
2019-01-28T05:28:24.541Z,1.80
2019-01-28T05:30:55.211Z,1.80
2019-01-28T05:33:27.633Z,1.70
2019-01-28T05:36:00.649Z,1.70
2019-01-28T05:38:32.512Z,1.70
2019-01-28T05:41:03.690Z,1.70
2019-01-28T05:43:36.576Z,1.70
2019-01-28T05:46:07.304Z,1.60
2019-01-28T05:48:41.381Z,1.60
2019-01-28T05:51:14.501Z,1.70
2019-01-28T05:53:44.711Z,1.70
2019-01-28T05:56:17.547Z,1.60
2019-01-28T05:58:48.310Z,1.50
2019-01-28T06:01:22.131Z,1.50
2019-01-28T06:03:57.179Z,1.60
2019-01-28T06:06:28.589Z,1.60
2019-01-28T06:09:02.202Z,1.50
2019-01-28T06:11:34.414Z,1.50
2019-01-28T06:14:06.785Z,1.60
2019-01-28T06:16:38.548Z,1.50
2019-01-28T06:19:09.171Z,1.60
2019-01-28T06:21:39.262Z,1.50
2019-01-28T06:24:21.542Z,1.50
2019-01-28T06:26:55.126Z,1.50
2019-01-28T06:29:24.950Z,1.50
2019-01-28T06:31:56.095Z,1.50
2019-01-28T06:34:31.240Z,1.50
2019-01-28T06:37:01.968Z,1.50
2019-01-28T06:39:36.810Z,1.50
2019-01-28T06:42:08.412Z,1.50
2019-01-28T06:44:41.333Z,1.50
2019-01-28T06:47:17.314Z,1.50
2019-01-28T06:50:08.593Z,1.50
2019-01-28T06:52:40.368Z,1.60
2019-01-28T06:55:12.055Z,1.50
2019-01-28T06:57:42.448Z,1.60
2019-01-28T07:00:21.739Z,1.50
2019-01-28T07:03:01.854Z,1.60
2019-01-28T07:05:54.382Z,1.60
2019-01-28T07:08:25.879Z,1.60
2019-01-28T07:10:59.025Z,1.60
2019-01-28T07:13:30.449Z,1.60
2019-01-28T07:16:01.959Z,1.50
2019-01-28T07:18:32.957Z,1.60
2019-01-28T07:21:09.490Z,1.60
2019-01-28T07:23:45.497Z,1.60
2019-01-28T07:26:21.196Z,1.50
2019-01-28T07:28:53.391Z,1.60
2019-01-28T07:31:24.798Z,1.50
2019-01-28T07:34:02.696Z,1.60
2019-01-28T07:36:57.797Z,1.40
2019-01-28T07:39:28.556Z,1.50
2019-01-28T07:42:00.905Z,1.40
2019-01-28T07:44:32.810Z,1.50
2019-01-28T07:47:03.955Z,1.50
2019-01-28T07:49:35.021Z,1.50
2019-01-28T07:52:07.329Z,1.50
2019-01-28T07:54:38.473Z,1.50
2019-01-28T07:57:10.188Z,1.50
2019-01-28T07:59:41.425Z,1.50
2019-01-28T08:02:16.338Z,1.60
2019-01-28T08:04:48.542Z,1.60
2019-01-28T08:07:21.414Z,1.60
2019-01-28T08:09:58.203Z,1.50
2019-01-28T08:12:32.930Z,1.60
2019-01-28T08:15:16.702Z,1.60
2019-01-28T08:17:51.959Z,1.60
2019-01-28T08:20:29.984Z,1.60
2019-01-28T08:23:47.795Z,1.60
2019-01-28T08:26:35.711Z,1.60
2019-01-28T08:29:08.827Z,1.70
2019-01-28T08:31:55.101Z,1.60
2019-01-28T08:34:44.250Z,1.70
2019-01-28T08:37:35.313Z,1.60
2019-01-28T08:40:09.220Z,1.70
2019-01-28T08:42:42.098Z,1.70
2019-01-28T08:45:16.503Z,1.70
2019-01-28T08:47:58.571Z,1.70
2019-01-28T08:50:30.821Z,1.70
2019-01-28T08:53:02.161Z,1.70
2019-01-28T08:55:33.862Z,1.70
2019-01-28T08:58:17.918Z,1.80
2019-01-28T09:00:49.955Z,1.80
2019-01-28T09:03:22.616Z,1.80
2019-01-28T09:05:59.056Z,1.70
2019-01-28T09:08:45.520Z,1.70
2019-01-28T09:11:17.198Z,1.70
2019-01-28T09:13:51.168Z,1.70
2019-01-28T09:16:22.628Z,1.70
2019-01-28T09:18:56.844Z,1.80
2019-01-28T09:21:28.362Z,1.80
2019-01-28T09:24:11.089Z,1.80
2019-01-28T09:26:47.929Z,1.70
2019-01-28T09:29:24.301Z,1.70
2019-01-28T09:32:02.387Z,1.70
2019-01-28T09:34:34.592Z,1.80
2019-01-28T09:37:10.533Z,1.80
2019-01-28T09:39:48.794Z,1.80
2019-01-28T09:42:23.006Z,1.80
2019-01-28T09:44:55.005Z,1.80
2019-01-28T09:47:27.265Z,1.90
2019-01-28T09:49:59.547Z,1.90
2019-01-28T09:52:37.362Z,1.90
2019-01-28T09:55:11.185Z,1.90
2019-01-28T09:57:45.950Z,1.90
2019-01-28T10:00:22.246Z,1.80
2019-01-28T10:02:54.918Z,1.80
2019-01-28T10:05:29.032Z,1.80
2019-01-28T10:08:00.423Z,1.80
2019-01-28T10:10:33.761Z,1.80
2019-01-28T10:13:10.322Z,1.80
2019-01-28T10:15:42.914Z,1.70
2019-01-28T10:18:14.279Z,1.80
2019-01-28T10:20:49.410Z,1.80
2019-01-28T10:23:21.482Z,1.80
2019-01-28T10:25:57.774Z,1.80
2019-01-28T10:28:28.644Z,1.80
2019-01-28T10:31:10.078Z,1.90
2019-01-28T10:33:49.803Z,1.70
2019-01-28T10:36:22.931Z,1.70
2019-01-28T10:38:53.785Z,1.70
2019-01-28T10:41:33.124Z,1.70
2019-01-28T10:44:10.026Z,1.70
2019-01-28T10:46:41.854Z,1.70
2019-01-28T10:49:13.009Z,1.80
2019-01-28T10:51:45.193Z,1.70
2019-01-28T10:54:17.247Z,1.80
2019-01-28T10:56:49.952Z,1.70
2019-01-28T10:59:21.600Z,1.70
2019-01-28T11:01:54.819Z,1.70
2019-01-28T11:04:27.601Z,1.70
2019-01-28T11:06:59.127Z,1.70
2019-01-28T11:09:31.107Z,1.80
2019-01-28T11:12:18.825Z,1.80
2019-01-28T11:14:50.070Z,1.70
2019-01-28T11:17:21.057Z,1.80
2019-01-28T11:19:54.457Z,1.80
2019-01-28T11:22:35.205Z,1.80
2019-01-28T11:25:09.343Z,1.80
2019-01-28T11:27:41.515Z,1.90
2019-01-28T11:30:22.332Z,1.90
2019-01-28T11:32:53.493Z,1.90
2019-01-28T11:35:26.790Z,1.90
2019-01-28T11:38:04.778Z,2.00
2019-01-28T11:40:37.488Z,1.90
2019-01-28T11:43:09.581Z,1.90
2019-01-28T11:45:46.069Z,1.90
2019-01-28T11:48:42.973Z,1.90
2019-01-28T11:51:16.042Z,1.80
2019-01-28T11:53:50.436Z,1.80
2019-01-28T11:56:43.967Z,1.90
2019-01-28T11:59:17.370Z,1.80
2019-01-28T12:02:02.151Z,1.90
2019-01-28T12:04:32.387Z,1.80
2019-01-28T12:07:48.715Z,1.80
2019-01-28T12:10:20.524Z,1.80
2019-01-28T12:12:51.864Z,1.80
2019-01-28T12:15:26.547Z,1.80
2019-01-28T12:17:57.777Z,1.80
2019-01-28T12:20:29.485Z,1.90
2019-01-28T12:23:03.331Z,1.90
2019-01-28T12:25:40.110Z,1.90
2019-01-28T12:28:19.064Z,1.90
2019-01-28T12:30:51.606Z,1.80
2019-01-28T12:33:27.378Z,1.80
2019-01-28T12:36:04.764Z,1.80
2019-01-28T12:38:44.467Z,1.70
2019-01-28T12:41:19.421Z,1.80
2019-01-28T12:43:58.503Z,1.70
2019-01-28T12:46:53.958Z,1.80
2019-01-28T12:49:26.935Z,1.80
2019-01-28T12:51:58.413Z,1.80
2019-01-28T12:54:28.735Z,1.80
2019-01-28T12:57:01.750Z,1.70
2019-01-28T12:59:36.142Z,1.70
2019-01-28T13:02:08.263Z,1.80
2019-01-28T13:04:46.001Z,1.80
2019-01-28T13:07:19.183Z,1.80
2019-01-28T13:09:55.202Z,1.70
2019-01-28T13:12:29.946Z,1.70
2019-01-28T13:15:02.567Z,1.70
2019-01-28T13:17:39.613Z,1.70
2019-01-28T13:20:30.554Z,1.70
2019-01-28T13:23:02.204Z,1.70
2019-01-28T13:25:34.027Z,1.70
2019-01-28T13:28:06.908Z,1.70
2019-01-28T13:30:39.275Z,1.70
2019-01-28T13:33:19.804Z,1.60
2019-01-28T13:35:52.748Z,1.70
2019-01-28T13:38:22.709Z,1.60
2019-01-28T13:40:56.895Z,1.60
2019-01-28T13:43:41.385Z,1.60
2019-01-28T13:46:23.564Z,1.60
2019-01-28T13:48:54.883Z,1.60
2019-01-28T13:51:28.339Z,1.60
2019-01-28T13:54:00.753Z,1.70
2019-01-28T13:56:31.218Z,1.60
2019-01-28T13:59:19.175Z,1.60
2019-01-28T14:05:03.376Z,1.50
2019-01-28T14:08:04.687Z,1.50
2019-01-28T14:10:46.069Z,1.50
2019-01-28T14:13:19.825Z,1.50
2019-01-28T14:15:54.624Z,1.50
2019-01-28T14:18:42.699Z,1.40
2019-01-28T14:21:19.173Z,1.40
2019-01-28T14:24:50.387Z,1.40
2019-01-28T14:27:49.767Z,1.40
2019-01-28T14:31:22.856Z,1.40
2019-01-28T14:34:43.449Z,1.40
2019-01-28T14:37:37.301Z,1.40
2019-01-28T14:40:17.949Z,1.50
2019-01-28T14:43:40.555Z,1.50
2019-01-28T14:46:52.060Z,1.40
2019-01-28T14:49:54.455Z,1.50
2019-01-28T14:52:53.038Z,1.40
2019-01-28T14:56:04.946Z,1.40
2019-01-28T15:15:33.553Z,1.40
2019-01-28T15:50:40.254Z,1.30
2019-01-28T15:53:28.071Z,1.30
2019-01-28T15:56:22.928Z,1.30
2019-01-28T15:59:34.488Z,1.30
2019-01-28T16:10:41.449Z,1.30
2019-01-28T16:20:10.303Z,1.40
2019-01-28T16:22:44.490Z,1.40
2019-01-28T16:25:16.755Z,1.40
2019-01-28T16:27:47.086Z,1.40
2019-01-28T16:30:19.892Z,1.40
2019-01-28T16:32:51.086Z,1.40
2019-01-28T16:35:22.641Z,1.40
2019-01-28T16:37:53.484Z,1.40
2019-01-28T16:40:28.952Z,1.40
2019-01-28T16:43:00.443Z,1.40
2019-01-28T16:45:32.169Z,1.40
2019-01-28T16:48:03.234Z,1.40
2019-01-28T16:50:33.508Z,1.40
2019-01-28T16:53:04.316Z,1.30
2019-01-28T16:55:35.387Z,1.30
2019-01-28T16:58:07.164Z,1.30
2019-01-28T17:00:41.727Z,1.30
2019-01-28T17:03:13.603Z,1.40
2019-01-28T17:05:44.997Z,1.40
2019-01-28T17:08:16.486Z,1.40
2019-01-28T17:10:47.384Z,1.40
2019-01-28T17:19:56.134Z,1.40
2019-01-28T17:23:17.630Z,1.40
2019-01-28T17:26:25.238Z,1.40
2019-01-28T17:45:14.235Z,1.40
2019-01-28T17:48:05.056Z,1.40
2019-01-28T17:50:43.060Z,1.40
2019-01-28T17:53:08.592Z,1.40
2019-01-28T17:55:43.027Z,1.40
2019-01-28T17:58:19.100Z,1.40
2019-01-28T18:00:56.926Z,1.40
2019-01-28T18:03:28.648Z,1.40
2019-01-28T18:06:02.202Z,1.40
2019-01-28T18:15:20.710Z,1.50
2019-01-28T18:18:06.121Z,1.40
2019-01-28T18:20:52.347Z,1.40
2019-01-28T18:23:49.827Z,1.50
2019-01-28T18:29:55.504Z,1.50
2019-01-28T18:33:04.038Z,1.60
2019-01-28T18:35:34.386Z,1.60
2019-01-28T18:38:05.061Z,1.60
2019-01-28T18:40:36.710Z,1.60
2019-01-28T18:43:07.870Z,1.60
2019-01-28T18:49:37.987Z,1.60
2019-01-28T18:52:09.596Z,1.60
2019-01-28T18:54:45.936Z,1.60
2019-01-28T18:57:30.393Z,1.60
2019-01-28T19:01:06.819Z,1.60
2019-01-28T19:04:00.732Z,1.60
2019-01-28T19:06:49.142Z,1.70
2019-01-28T19:31:17.164Z,1.80
2019-01-28T19:36:55.650Z,1.80
2019-01-28T19:39:29.534Z,1.80
2019-01-28T19:42:21.433Z,1.80
2019-01-28T19:44:55.431Z,1.80
2019-01-28T19:47:26.711Z,1.80
2019-01-28T19:49:59.672Z,1.80
2019-01-28T19:52:30.848Z,1.80
2019-01-28T19:55:01.665Z,1.80
2019-01-28T19:57:36.468Z,1.80
2019-01-28T20:00:11.817Z,1.70
2019-01-28T20:02:42.424Z,1.80
2019-01-28T20:05:13.575Z,1.70
2019-01-28T20:07:45.890Z,1.70
2019-01-28T20:10:19.397Z,1.70
2019-01-28T20:12:50.703Z,1.70
2019-01-28T20:15:22.608Z,1.70
2019-01-28T20:17:53.700Z,1.70
2019-01-28T20:20:25.441Z,1.70
2019-01-28T20:22:58.647Z,1.70
2019-01-28T20:25:31.384Z,1.70
2019-01-28T20:28:02.809Z,1.60
2019-01-28T20:30:43.987Z,1.60
2019-01-28T20:33:18.346Z,1.60
2019-01-28T20:35:51.283Z,1.60
2019-01-28T20:38:22.412Z,1.60
2019-01-28T20:40:54.440Z,1.60
2019-01-28T20:43:27.712Z,1.50
2019-01-28T20:45:59.860Z,1.60
2019-01-28T20:48:42.897Z,1.60
2019-01-28T20:51:15.909Z,1.60
2019-01-28T20:53:48.072Z,1.60
2019-01-28T20:56:18.421Z,1.50
2019-01-28T20:58:49.305Z,1.50
2019-01-28T21:01:20.932Z,1.50
2019-01-28T21:03:51.897Z,1.40
2019-01-28T21:06:23.030Z,1.50
2019-01-28T21:08:53.796Z,1.50
2019-01-28T21:11:24.750Z,1.50
2019-01-28T21:13:55.321Z,1.50
2019-01-28T21:16:26.006Z,1.50
2019-01-28T21:18:57.086Z,1.50
2019-01-28T21:21:27.583Z,1.50
2019-01-28T21:23:58.699Z,1.50
2019-01-28T21:26:32.729Z,1.50
2019-01-28T21:29:03.100Z,1.50
2019-01-28T21:31:33.793Z,1.50
2019-01-28T21:34:04.576Z,1.50
2019-01-28T21:36:49.101Z,1.40
2019-01-28T21:39:20.940Z,1.40
2019-01-28T21:41:52.517Z,1.50
2019-01-28T21:44:24.181Z,1.50
2019-01-28T21:46:55.694Z,1.50
2019-01-28T21:49:27.477Z,1.60
2019-01-28T21:51:58.137Z,1.60
2019-01-28T21:54:28.500Z,1.60
2019-01-28T21:56:58.858Z,1.60
2019-01-28T21:59:30.447Z,1.50
2019-01-28T22:02:01.825Z,1.50
2019-01-28T22:04:32.088Z,1.50
2019-01-28T22:07:04.043Z,1.50
2019-01-28T22:09:34.988Z,1.50
2019-01-28T22:12:07.347Z,1.50
2019-01-28T22:14:37.838Z,1.50
2019-01-28T22:17:10.053Z,1.50
2019-01-28T22:19:42.572Z,1.40
2019-01-28T22:22:12.874Z,1.40
2019-01-28T22:24:43.488Z,1.40
2019-01-28T22:27:13.773Z,1.40
2019-01-28T22:29:44.315Z,1.40
2019-01-28T22:32:15.216Z,1.30
2019-01-28T22:34:47.943Z,1.30
2019-01-28T22:37:19.863Z,1.20
2019-01-28T22:39:50.147Z,1.20
2019-01-28T22:42:21.379Z,1.20
2019-01-28T22:44:53.013Z,1.20
2019-01-28T22:47:25.892Z,1.20
2019-01-28T22:49:57.085Z,1.20
2019-01-28T22:52:27.316Z,1.20
2019-01-28T22:54:59.463Z,1.20
2019-01-28T22:57:31.150Z,1.20
2019-01-28T23:00:01.321Z,1.20
2019-01-28T23:02:32.105Z,1.20
2019-01-28T23:05:02.473Z,1.20
2019-01-28T23:07:33.274Z,1.20
2019-01-28T23:10:04.839Z,1.20
2019-01-28T23:12:35.013Z,1.20
2019-01-28T23:15:08.238Z,1.20
2019-01-28T23:17:38.346Z,1.20
2019-01-28T23:20:09.938Z,1.20
2019-01-28T23:22:40.348Z,1.20
2019-01-28T23:25:12.958Z,1.30
2019-01-28T23:27:43.548Z,1.30
2019-01-28T23:30:14.580Z,1.30
2019-01-28T23:32:45.986Z,1.30
2019-01-28T23:35:18.089Z,1.30
2019-01-28T23:37:48.578Z,1.30
2019-01-28T23:40:19.351Z,1.30
2019-01-28T23:42:50.337Z,1.30
2019-01-28T23:45:21.139Z,1.30
2019-01-28T23:47:51.244Z,1.30
2019-01-28T23:50:21.889Z,1.40
2019-01-28T23:52:53.220Z,1.30
2019-01-28T23:55:23.815Z,1.30
2019-01-28T23:57:56.881Z,1.30
